Cap Isabel — VRGA2 — position and weather

sailwx.info

Track history (hours):
 
Tides and Currents Weather Stations Pressure Air Temp Water Temp Dewpoint Dewpoint Depression Visibility Wind Speed Wind Dir Waves Ship Positions

Cap Isabel

Last reported at 2016-Jan-29 22:06 UTC. Time now 2016-Feb-11 15:02 UTC.
Position N 25°23' W 079°52'.
Warning: this ship's position is 12 days out of date.

Length 264 m; draft 9.1 m.

Type: Ship (hazmat cat C). MMSI: 477639500.

Date/timePositionNaut miles runAvg speedWind from/ knotsBaromVisibWave heightAir tempDewpointWater temp
2016-Jan-29 22:06N 25°23' W 079°52'1221.1
2016-Jan-29 21:34N 25°34' W 079°56'2020.1
2016-Jan-29 20:33N 25°54' W 080°01'1312.6
2016-Jan-29 19:33N 26°05' W 080°07'1 1.1
2016-Jan-29 18:31N 26°04' W 080°07'0 0.0
2016-Jan-29 17:31N 26°04' W 080°07'0 0.0
2016-Jan-29 16:31N 26°04' W 080°07'0 0.0
2016-Jan-29 15:31N 26°04' W 080°07'0 0.0
2016-Jan-29 14:31N 26°04' W 080°07'0 0.0
2016-Jan-29 13:31N 26°04' W 080°07'0 0.0
2016-Jan-29 12:28N 26°04' W 080°07'0 0.0
2016-Jan-29 11:31N 26°04' W 080°07'0 0.0
2016-Jan-29 10:31N 26°04' W 080°07'0 0.0
2016-Jan-29 09:31N 26°04' W 080°07'0 0.0
2016-Jan-29 08:31N 26°04' W 080°07'1 1.4
2016-Jan-29 07:33N 26°06' W 080°06'6 5.5
2016-Jan-29 06:33N 26°08' W 080°01'4 3.7
2016-Jan-29 05:33N 26°11' W 079°58'2 2.4
2016-Jan-29 04:33N 26°09' W 079°59'2 2.4
2016-Jan-29 03:33N 26°06' W 079°60'5 5.4
2016-Jan-29 02:33N 26°11' W 079°58'8 8.2
2016-Jan-29 01:33N 26°19' W 079°59'9 8.9
2016-Jan-29 00:33N 26°28' W 079°58'1211.5
2016-Jan-28 23:33N 26°40' W 079°56'1818.2
2016-Jan-28 22:33N 26°57' W 079°52'72718.1
2016-Jan-27 06:24N 38°44' W 076°26'1720.0
2016-Jan-27 05:33N 39°01' W 076°23'1312.8
2016-Jan-27 04:33N 39°12' W 076°30'4 3.8
2016-Jan-27 03:32N 39°15' W 076°33'0 0.0
2016-Jan-27 02:32N 39°15' W 076°33'0 0.0
2016-Jan-27 01:32N 39°15' W 076°33'0 0.0
2016-Jan-27 00:32N 39°15' W 076°33'0 0.0
2016-Jan-26 23:32N 39°15' W 076°33'0 0.0
2016-Jan-26 22:32N 39°15' W 076°33'0 0.0
2016-Jan-26 21:32N 39°15' W 076°33'0 0.0
2016-Jan-26 20:32N 39°15' W 076°33'0 0.0
2016-Jan-26 19:32N 39°15' W 076°33'0 0.0
2016-Jan-26 18:32N 39°15' W 076°33'0 0.0
2016-Jan-26 17:32N 39°15' W 076°33'0 0.0
2016-Jan-26 16:32N 39°15' W 076°33'0 0.0
2016-Jan-26 15:32N 39°15' W 076°33'0 0.0
2016-Jan-26 14:32N 39°15' W 076°33'0 0.0
2016-Jan-26 13:32N 39°15' W 076°33'0 0.0
2016-Jan-26 12:32N 39°15' W 076°33'0 0.0
2016-Jan-26 11:32N 39°15' W 076°33'0 0.0
2016-Jan-26 10:32N 39°15' W 076°33'0 0.0
2016-Jan-26 09:32N 39°15' W 076°33'0 0.0
2016-Jan-26 08:32N 39°15' W 076°33'0 0.0
2016-Jan-26 07:32N 39°15' W 076°33'0 0.0
2016-Jan-26 06:32N 39°15' W 076°33'0 0.0
2016-Jan-26 05:32N 39°15' W 076°33'0 0.0
2016-Jan-26 04:32N 39°15' W 076°33'0 0.0
2016-Jan-26 03:32N 39°15' W 076°33'0 0.0
2016-Jan-26 02:32N 39°15' W 076°33'0 0.0
2016-Jan-26 01:32N 39°15' W 076°33'0 0.0
2016-Jan-26 00:32N 39°15' W 076°33'0 0.0
2016-Jan-25 23:32N 39°15' W 076°33'0 0.0
2016-Jan-25 22:32N 39°15' W 076°33'0 0.0
2016-Jan-25 21:32N 39°15' W 076°33'0 0.0
2016-Jan-25 20:32N 39°15' W 076°33'0 0.0
2016-Jan-25 19:32N 39°15' W 076°33'0 0.0
2016-Jan-25 18:32N 39°15' W 076°33'0 0.0
2016-Jan-25 17:32N 39°15' W 076°33'0 0.0
2016-Jan-25 16:32N 39°15' W 076°33'0 0.0
2016-Jan-25 15:32N 39°15' W 076°33'0 0.0
2016-Jan-25 14:32N 39°15' W 076°33'0 0.0
2016-Jan-25 13:32N 39°15' W 076°33'1 0.7
2016-Jan-25 12:33N 39°15' W 076°33'6 5.9
2016-Jan-25 11:33N 39°11' W 076°27'1312.7
2016-Jan-25 10:34N 38°59' W 076°23'1919.2
2016-Jan-25 09:34N 38°39' W 076°25'4119.7
2016-Jan-25 07:30N 38°00' W 076°12'  
2016-Jan-22 08:19N 39°17' W 074°05'1012.6
2016-Jan-22 07:33N 39°26' W 074°00'1312.6
2016-Jan-22 06:33N 39°37' W 073°54'1312.6
2016-Jan-22 05:33N 39°50' W 073°52'2411.9
2016-Jan-22 03:31N 40°14' W 073°49'9 9.5
2016-Jan-22 02:33N 40°23' W 073°48'11 9.2
2016-Jan-22 01:23N 40°31' W 073°59'1011.6
2016-Jan-22 00:33N 40°40' W 074°03'1 1.4
2016-Jan-21 23:32N 40°40' W 074°05'0 0.0
2016-Jan-21 22:32N 40°40' W 074°05'0 0.0
2016-Jan-21 21:32N 40°40' W 074°05'0 0.0
2016-Jan-21 20:32N 40°40' W 074°05'0 0.0
2016-Jan-21 19:32N 40°40' W 074°05'0 0.0
2016-Jan-21 18:32N 40°40' W 074°05'0 0.0
2016-Jan-21 17:32N 40°40' W 074°05'0 0.0
2016-Jan-21 16:32N 40°40' W 074°05'0 0.0
2016-Jan-21 15:32N 40°40' W 074°05'0 0.0
2016-Jan-21 14:32N 40°40' W 074°05'0 0.0
2016-Jan-21 13:32N 40°40' W 074°05'0 0.0
2016-Jan-21 12:32N 40°40' W 074°05'0 0.0
2016-Jan-21 11:29N 40°40' W 074°05'1 1.4
2016-Jan-21 10:33N 40°40' W 074°04'1110.7
2016-Jan-21 09:33N 40°30' W 073°57'9 8.6
2016-Jan-21 08:33N 40°25' W 073°48'4811.4
2016-Jan-21 04:21N 39°37' W 073°42'1316.0
2016-Jan-21 03:33N 39°25' W 073°46'  
Track history (hours):
 
Tides and Currents Weather Stations Pressure Air Temp Water Temp Dewpoint Dewpoint Depression Visibility Wind Speed Wind Dir Waves Ship Positions

Cap Isabel

Last reported at 2016-Jan-29 22:06 UTC. Time now 2016-Feb-11 15:02 UTC.
Position N 25°23' W 079°52'.
Warning: this ship's position is 12 days out of date.

Length 264 m; draft 9.1 m.

Type: Ship (hazmat cat C). MMSI: 477639500.

Date/timePositionNaut miles runAvg speedWind from/ knotsBaromVisibWave heightAir tempDewpointWater temp
2016-Jan-29 22:06N 25°23' W 079°52'1221.1
2016-Jan-29 21:34N 25°34' W 079°56'2020.1
2016-Jan-29 20:33N 25°54' W 080°01'1312.6
2016-Jan-29 19:33N 26°05' W 080°07'1 1.1
2016-Jan-29 18:31N 26°04' W 080°07'0 0.0
2016-Jan-29 17:31N 26°04' W 080°07'0 0.0
2016-Jan-29 16:31N 26°04' W 080°07'0 0.0
2016-Jan-29 15:31N 26°04' W 080°07'0 0.0
2016-Jan-29 14:31N 26°04' W 080°07'0 0.0
2016-Jan-29 13:31N 26°04' W 080°07'0 0.0
2016-Jan-29 12:28N 26°04' W 080°07'0 0.0
2016-Jan-29 11:31N 26°04' W 080°07'0 0.0
2016-Jan-29 10:31N 26°04' W 080°07'0 0.0
2016-Jan-29 09:31N 26°04' W 080°07'0 0.0
2016-Jan-29 08:31N 26°04' W 080°07'1 1.4
2016-Jan-29 07:33N 26°06' W 080°06'6 5.5
2016-Jan-29 06:33N 26°08' W 080°01'4 3.7
2016-Jan-29 05:33N 26°11' W 079°58'2 2.4
2016-Jan-29 04:33N 26°09' W 079°59'2 2.4
2016-Jan-29 03:33N 26°06' W 079°60'5 5.4
2016-Jan-29 02:33N 26°11' W 079°58'8 8.2
2016-Jan-29 01:33N 26°19' W 079°59'9 8.9
2016-Jan-29 00:33N 26°28' W 079°58'1211.5
2016-Jan-28 23:33N 26°40' W 079°56'1818.2
2016-Jan-28 22:33N 26°57' W 079°52'72718.1
2016-Jan-27 06:24N 38°44' W 076°26'1720.0
2016-Jan-27 05:33N 39°01' W 076°23'1312.8
2016-Jan-27 04:33N 39°12' W 076°30'4 3.8
2016-Jan-27 03:32N 39°15' W 076°33'0 0.0
2016-Jan-27 02:32N 39°15' W 076°33'0 0.0
2016-Jan-27 01:32N 39°15' W 076°33'0 0.0
2016-Jan-27 00:32N 39°15' W 076°33'0 0.0
2016-Jan-26 23:32N 39°15' W 076°33'0 0.0
2016-Jan-26 22:32N 39°15' W 076°33'0 0.0
2016-Jan-26 21:32N 39°15' W 076°33'0 0.0
2016-Jan-26 20:32N 39°15' W 076°33'0 0.0
2016-Jan-26 19:32N 39°15' W 076°33'0 0.0
2016-Jan-26 18:32N 39°15' W 076°33'0 0.0
2016-Jan-26 17:32N 39°15' W 076°33'0 0.0
2016-Jan-26 16:32N 39°15' W 076°33'0 0.0
2016-Jan-26 15:32N 39°15' W 076°33'0 0.0
2016-Jan-26 14:32N 39°15' W 076°33'0 0.0
2016-Jan-26 13:32N 39°15' W 076°33'0 0.0
2016-Jan-26 12:32N 39°15' W 076°33'0 0.0
2016-Jan-26 11:32N 39°15' W 076°33'0 0.0
2016-Jan-26 10:32N 39°15' W 076°33'0 0.0
2016-Jan-26 09:32N 39°15' W 076°33'0 0.0
2016-Jan-26 08:32N 39°15' W 076°33'0 0.0
2016-Jan-26 07:32N 39°15' W 076°33'0 0.0
2016-Jan-26 06:32N 39°15' W 076°33'0 0.0
2016-Jan-26 05:32N 39°15' W 076°33'0 0.0
2016-Jan-26 04:32N 39°15' W 076°33'0 0.0
2016-Jan-26 03:32N 39°15' W 076°33'0 0.0
2016-Jan-26 02:32N 39°15' W 076°33'0 0.0
2016-Jan-26 01:32N 39°15' W 076°33'0 0.0
2016-Jan-26 00:32N 39°15' W 076°33'0 0.0
2016-Jan-25 23:32N 39°15' W 076°33'0 0.0
2016-Jan-25 22:32N 39°15' W 076°33'0 0.0
2016-Jan-25 21:32N 39°15' W 076°33'0 0.0
2016-Jan-25 20:32N 39°15' W 076°33'0 0.0
2016-Jan-25 19:32N 39°15' W 076°33'0 0.0
2016-Jan-25 18:32N 39°15' W 076°33'0 0.0
2016-Jan-25 17:32N 39°15' W 076°33'0 0.0
2016-Jan-25 16:32N 39°15' W 076°33'0 0.0
2016-Jan-25 15:32N 39°15' W 076°33'0 0.0
2016-Jan-25 14:32N 39°15' W 076°33'0 0.0
2016-Jan-25 13:32N 39°15' W 076°33'1 0.7
2016-Jan-25 12:33N 39°15' W 076°33'6 5.9
2016-Jan-25 11:33N 39°11' W 076°27'1312.7
2016-Jan-25 10:34N 38°59' W 076°23'1919.2
2016-Jan-25 09:34N 38°39' W 076°25'4119.7
2016-Jan-25 07:30N 38°00' W 076°12'  
2016-Jan-22 08:19N 39°17' W 074°05'1012.6
2016-Jan-22 07:33N 39°26' W 074°00'1312.6
2016-Jan-22 06:33N 39°37' W 073°54'1312.6
2016-Jan-22 05:33N 39°50' W 073°52'2411.9
2016-Jan-22 03:31N 40°14' W 073°49'9 9.5
2016-Jan-22 02:33N 40°23' W 073°48'11 9.2
2016-Jan-22 01:23N 40°31' W 073°59'1011.6
2016-Jan-22 00:33N 40°40' W 074°03'1 1.4
2016-Jan-21 23:32N 40°40' W 074°05'0 0.0
2016-Jan-21 22:32N 40°40' W 074°05'0 0.0
2016-Jan-21 21:32N 40°40' W 074°05'0 0.0
2016-Jan-21 20:32N 40°40' W 074°05'0 0.0
2016-Jan-21 19:32N 40°40' W 074°05'0 0.0
2016-Jan-21 18:32N 40°40' W 074°05'0 0.0
2016-Jan-21 17:32N 40°40' W 074°05'0 0.0
2016-Jan-21 16:32N 40°40' W 074°05'0 0.0
2016-Jan-21 15:32N 40°40' W 074°05'0 0.0
2016-Jan-21 14:32N 40°40' W 074°05'0 0.0
2016-Jan-21 13:32N 40°40' W 074°05'0 0.0
2016-Jan-21 12:32N 40°40' W 074°05'0 0.0
2016-Jan-21 11:29N 40°40' W 074°05'1 1.4
2016-Jan-21 10:33N 40°40' W 074°04'1110.7
2016-Jan-21 09:33N 40°30' W 073°57'9 8.6
2016-Jan-21 08:33N 40°25' W 073°48'4811.4
2016-Jan-21 04:21N 39°37' W 073°42'1316.0
2016-Jan-21 03:33N 39°25' W 073°46'  

Dump ship's entire track history